Time;durP1;ratioP1;P1;durP2;ratioP2;P2;SDS_P1;SDS_P2;PMS_P1;PMS_P2;Temp;Humidity;BMP_temperature;BMP_pressure;BME280_temperature;BME280_humidity;BME280_pressure;Samples;Min_cycle;Max_cycle;Signal;HPM_P1;HPM_P2
2023/04/05 00:01:54;;;;;;;11.02;6.20;;;;;;;-3.39;91.69;97779.63;5022578;28;20132;-56
2023/04/05 00:04:22;;;;;;;10.02;5.45;;;;;;;-3.29;91.84;97775.06;5022011;28;20037;-55
2023/04/05 00:06:51;;;;;;;14.80;6.40;;;;;;;-3.22;90.97;97777.94;5019406;28;20045;-54
2023/04/05 00:09:19;;;;;;;10.18;5.82;;;;;;;-3.40;92.34;97770.84;5022402;28;20064;-57
2023/04/05 00:11:46;;;;;;;9.15;5.30;;;;;;;-3.41;92.69;97763.91;5019475;28;20049;-58
2023/04/05 00:14:13;;;;;;;14.05;7.13;;;;;;;-3.42;92.23;97758.75;5021739;28;20532;-58
2023/04/05 00:16:40;;;;;;;11.90;6.25;;;;;;;-3.24;92.48;97758.72;5014913;28;20042;-56
2023/04/05 00:19:07;;;;;;;10.85;6.07;;;;;;;-3.24;91.76;97763.19;5018851;28;20108;-56
2023/04/05 00:21:34;;;;;;;9.32;5.72;;;;;;;-3.27;91.46;97756.38;5022889;28;20194;-58
2023/04/05 00:24:00;;;;;;;8.50;5.28;;;;;;;-3.25;92.07;97756.22;5018201;28;20564;-58
2023/04/05 00:26:27;;;;;;;11.75;6.75;;;;;;;-3.12;91.99;97751.34;5023107;28;20034;-57
2023/04/05 00:28:56;;;;;;;12.32;6.63;;;;;;;-3.11;90.96;97747.72;5022276;28;20817;-56
2023/04/05 00:31:22;;;;;;;12.20;6.15;;;;;;;-3.16;92.47;97750.00;5026771;28;20038;-57
2023/04/05 00:33:49;;;;;;;9.80;5.47;;;;;;;-3.16;92.00;97739.41;5022643;28;20057;-55
2023/04/05 00:36:18;;;;;;;10.02;6.22;;;;;;;-3.08;91.85;97730.69;5017834;28;20045;-57
2023/04/05 00:38:46;;;;;;;10.20;6.30;;;;;;;-3.21;91.89;97729.25;5028868;28;20059;-58
2023/04/05 00:41:13;;;;;;;11.65;6.10;;;;;;;-3.16;92.59;97726.97;5024190;28;20151;-57
2023/04/05 00:43:40;;;;;;;10.27;6.13;;;;;;;-3.12;92.07;97724.88;5021688;28;20488;-56
2023/04/05 00:46:08;;;;;;;11.80;6.00;;;;;;;-3.12;92.25;97724.88;5019292;28;20042;-55
2023/04/05 00:48:35;;;;;;;10.13;5.03;;;;;;;-3.00;91.98;97728.09;5021072;28;20057;-58
2023/04/05 00:51:02;;;;;;;8.52;5.70;;;;;;;-3.02;91.14;97730.88;5021288;28;20049;-57
2023/04/05 00:53:28;;;;;;;9.25;5.85;;;;;;;-3.19;92.50;97722.00;5024117;28;20038;-55
2023/04/05 00:55:56;;;;;;;10.25;6.05;;;;;;;-3.26;93.17;97723.59;5018630;28;20081;-56
2023/04/05 00:58:23;;;;;;;10.45;5.95;;;;;;;-3.34;93.44;97715.59;5019168;28;20049;-54
2023/04/05 01:01:17;;;;;;;7.88;5.40;;;;;;;-3.38;93.86;97720.38;5020951;28;20049;-57
2023/04/05 01:03:58;;;;;;;8.95;5.55;;;;;;;-3.41;94.38;97715.38;5018207;28;20038;-55
2023/04/05 01:06:50;;;;;;;10.73;6.40;;;;;;;-3.37;93.82;97714.09;5018289;28;20049;-57
2023/04/05 01:09:25;;;;;;;9.98;6.03;;;;;;;-3.34;93.81;97710.31;5018768;28;20099;-57
2023/04/05 01:11:55;;;;;;;10.38;6.07;;;;;;;-3.40;94.26;97703.81;5022395;28;20108;-56
2023/04/05 01:14:22;;;;;;;11.15;6.53;;;;;;;-3.40;94.24;97706.47;5012317;28;20048;-57
2023/04/05 01:16:50;;;;;;;14.35;6.93;;;;;;;-3.35;94.51;97698.91;5009974;28;20050;-57
2023/04/05 01:19:17;;;;;;;13.43;6.20;;;;;;;-3.18;93.57;97698.97;5023822;28;20037;-57
2023/04/05 01:22:12;;;;;;;10.07;5.68;;;;;;;-3.25;93.31;97692.66;5018778;28;20064;-57
2023/04/05 01:25:01;;;;;;;10.63;5.90;;;;;;;-3.28;94.02;97694.63;5024540;28;20046;-58
2023/04/05 01:27:55;;;;;;;11.63;6.78;;;;;;;-2.89;94.74;97696.03;5022880;28;20447;-57
2023/04/05 01:30:27;;;;;;;11.38;6.05;;;;;;;-2.94;91.95;97698.31;5021077;28;20049;-58
2023/04/05 01:33:29;;;;;;;9.52;5.80;;;;;;;-2.97;92.83;97692.50;5021659;28;20510;-58
2023/04/05 01:36:03;;;;;;;;;;;;;;;-3.13;93.27;97692.25;5019295;28;20053;-56
2023/04/05 01:38:32;;;;;;;9.77;6.00;;;;;;;-3.11;93.97;97688.59;5020805;28;20363;-59
2023/04/05 01:40:59;;;;;;;9.43;5.28;;;;;;;-3.34;93.50;97684.66;5029216;28;20132;-59
2023/04/05 01:43:25;;;;;;;14.10;6.65;;;;;;;-3.38;95.06;97685.97;5021805;28;20080;-58
2023/04/05 01:45:53;;;;;;;13.38;6.20;;;;;;;-3.41;94.41;97686.25;5016237;28;20134;-57
2023/04/05 01:48:19;;;;;;;10.52;5.78;;;;;;;-3.41;94.86;97681.81;5022377;28;20033;-58
2023/04/05 01:50:46;;;;;;;13.13;6.88;;;;;;;-3.38;94.54;97683.31;5019957;28;20049;-59
2023/04/05 01:53:13;;;;;;;10.25;6.35;;;;;;;-3.39;94.09;97676.38;5022011;28;20049;-58
2023/04/05 01:55:40;;;;;;;10.95;6.00;;;;;;;-3.29;94.27;97685.03;5023618;28;20171;-58
2023/04/05 01:58:07;;;;;;;14.10;6.38;;;;;;;-3.32;94.27;97674.72;5018520;28;20041;-59
2023/04/05 02:00:34;;;;;;;11.15;6.60;;;;;;;-3.39;94.11;97679.00;5020129;28;20527;-58
2023/04/05 02:03:00;;;;;;;9.60;5.85;;;;;;;-3.38;93.91;97667.44;5011630;28;20524;-59
2023/04/05 02:05:28;;;;;;;11.38;6.47;;;;;;;-3.34;94.37;97668.78;5020156;28;20409;-58
2023/04/05 02:07:55;;;;;;;12.73;5.95;;;;;;;-3.43;93.82;97675.00;5011911;28;20111;-58
2023/04/05 02:10:22;;;;;;;10.15;6.18;;;;;;;-3.28;93.77;97676.09;5014793;28;20052;-58
2023/04/05 02:12:48;;;;;;;12.07;6.35;;;;;;;-3.23;93.49;97675.63;5019095;28;20077;-59
2023/04/05 02:15:15;;;;;;;11.82;6.65;;;;;;;-3.19;93.29;97670.84;5020522;28;20041;-58
2023/04/05 02:17:44;;;;;;;10.27;5.90;;;;;;;-3.33;92.92;97662.50;5015384;28;20084;-55
2023/04/05 02:20:13;;;;;;;9.45;6.32;;;;;;;-3.44;93.61;97658.28;5020789;28;20053;-57
2023/04/05 02:22:40;;;;;;;11.27;5.93;;;;;;;-3.51;95.39;97659.88;5017434;28;20091;-58
2023/04/05 02:25:08;;;;;;;13.02;6.70;;;;;;;-3.38;94.43;97662.13;5018815;28;20145;-55
2023/04/05 02:27:36;;;;;;;9.45;5.95;;;;;;;-3.49;93.39;97659.72;5011410;28;20050;-57
2023/04/05 02:30:04;;;;;;;9.93;6.07;;;;;;;-3.75;94.69;97664.03;5018592;28;20038;-56
2023/04/05 02:32:30;;;;;;;10.38;6.38;;;;;;;-3.92;95.50;97661.25;5019774;28;20033;-55
2023/04/05 02:34:57;;;;;;;10.30;5.88;;;;;;;-3.93;96.53;97658.75;5017579;28;20034;-56
2023/04/05 02:37:25;;;;;;;11.52;6.13;;;;;;;-3.75;96.12;97650.78;5028637;28;20524;-59
2023/04/05 02:39:52;;;;;;;10.65;5.35;;;;;;;-3.93;95.59;97656.09;5022653;28;20049;-58
2023/04/05 02:42:19;;;;;;;12.38;6.05;;;;;;;-3.84;95.72;97660.47;5020996;28;20041;-58
2023/04/05 02:44:49;;;;;;;9.60;5.53;;;;;;;-4.08;95.56;97661.94;5016754;28;20512;-57
2023/04/05 02:47:20;;;;;;;10.75;6.22;;;;;;;-3.94;96.06;97665.03;5023652;28;20050;-57
2023/04/05 02:49:51;;;;;;;9.38;5.63;;;;;;;-3.86;95.34;97654.50;5007693;28;20077;-58
2023/04/05 02:52:18;;;;;;;9.52;5.50;;;;;;;-3.95;94.42;97653.59;5022482;28;20056;-58
2023/04/05 02:54:46;;;;;;;10.02;6.10;;;;;;;-3.94;94.41;97655.25;5016516;28;20045;-55
2023/04/05 02:57:17;;;;;;;12.10;5.70;;;;;;;-3.97;95.08;97654.72;5015625;28;20049;-58
2023/04/05 02:59:51;;;;;;;10.90;5.82;;;;;;;-4.16;95.66;97658.38;5020492;28;20046;-58
2023/04/05 03:02:20;;;;;;;11.68;6.18;;;;;;;-4.26;96.25;97653.97;5014746;28;20079;-58
2023/04/05 03:04:46;;;;;;;10.35;5.53;;;;;;;-4.20;96.63;97647.28;5019301;28;20037;-58
2023/04/05 03:07:17;;;;;;;10.00;5.78;;;;;;;-4.09;96.03;97654.97;5018760;28;20575;-56
2023/04/05 03:09:46;;;;;;;10.70;6.85;;;;;;;-4.10;95.60;97645.38;5014729;28;20038;-54
2023/04/05 03:12:13;;;;;;;10.93;6.10;;;;;;;-3.92;97.25;97647.16;5018749;28;20042;-57
2023/04/05 03:14:41;;;;;;;11.63;6.50;;;;;;;-4.13;94.78;97650.13;5017096;28;20042;-57
2023/04/05 03:17:12;;;;;;;11.80;6.00;;;;;;;-4.26;96.53;97645.22;5011847;28;20056;-53
2023/04/05 03:19:42;;;;;;;10.82;6.43;;;;;;;-4.18;96.04;97647.94;5021190;28;20504;-56
2023/04/05 03:22:21;;;;;;;15.13;7.10;;;;;;;-4.33;96.26;97644.97;5018256;28;20124;-57
2023/04/05 03:24:49;;;;;;;9.38;6.25;;;;;;;-4.22;95.82;97639.47;5017072;28;20045;-57
2023/04/05 03:27:17;;;;;;;11.23;6.65;;;;;;;-4.16;96.12;97647.78;5009445;28;20539;-57
2023/04/05 03:30:00;;;;;;;8.52;5.50;;;;;;;-4.02;95.30;97643.78;5025717;28;20183;-54
2023/04/05 03:32:29;;;;;;;9.15;5.75;;;;;;;-3.86;95.28;97641.28;5021755;28;20137;-53
2023/04/05 03:35:04;;;;;;;9.70;5.63;;;;;;;-3.79;93.52;97636.22;5017073;28;20041;-57
2023/04/05 03:37:32;;;;;;;11.32;5.50;;;;;;;-3.85;93.45;97642.09;5017735;28;20156;-57
2023/04/05 03:40:04;;;;;;;9.90;5.97;;;;;;;-3.88;94.20;97645.06;5020864;28;20133;-59
2023/04/05 03:42:30;;;;;;;8.93;5.07;;;;;;;-3.89;93.92;97646.03;5016117;28;20048;-56
2023/04/05 03:44:58;;;;;;;9.98;5.88;;;;;;;-3.92;93.45;97639.22;5018857;28;20033;-56
2023/04/05 03:47:25;;;;;;;9.73;5.95;;;;;;;-3.84;93.43;97638.50;5025418;28;20042;-53
2023/04/05 03:49:52;;;;;;;10.00;5.47;;;;;;;-3.76;93.00;97643.00;5024681;28;20052;-55
2023/04/05 03:52:18;;;;;;;10.38;5.25;;;;;;;-3.61;92.51;97633.50;5027864;28;20491;-57
2023/04/05 03:54:45;;;;;;;12.63;5.93;;;;;;;-3.77;91.91;97638.69;5014890;28;20056;-55
2023/04/05 03:57:15;;;;;;;11.18;5.53;;;;;;;-3.84;92.68;97638.50;5012276;28;20415;-56
2023/04/05 03:59:42;;;;;;;10.88;5.70;;;;;;;-3.96;92.31;97637.88;5019389;28;20590;-56
2023/04/05 04:02:09;;;;;;;8.63;5.47;;;;;;;-4.26;93.36;97634.63;5020381;28;20047;-55
2023/04/05 04:04:36;;;;;;;11.27;6.70;;;;;;;-4.37;95.52;97635.69;5021321;28;20038;-56
2023/04/05 04:07:02;;;;;;;11.82;7.22;;;;;;;-4.42;95.62;97646.72;5028959;28;20056;-58
2023/04/05 04:09:29;;;;;;;12.85;7.25;;;;;;;-4.37;94.97;97639.16;5021190;28;20073;-55
2023/04/05 04:12:03;;;;;;;9.98;6.88;;;;;;;-4.42;96.64;97638.78;5029420;28;20037;-55
2023/04/05 04:14:31;;;;;;;9.73;6.57;;;;;;;-4.34;96.18;97638.03;5031257;28;20038;-56
2023/04/05 04:17:25;;;;;;;11.98;6.90;;;;;;;-4.42;95.63;97644.09;5027469;28;20080;-58
2023/04/05 04:20:15;;;;;;;11.25;6.47;;;;;;;-4.53;95.06;97637.19;5010025;28;20949;-54
2023/04/05 04:22:52;;;;;;;10.45;5.80;;;;;;;-4.84;96.21;97640.13;5031151;28;20041;-56
2023/04/05 04:25:38;;;;;;;10.30;5.95;;;;;;;-4.96;97.16;97636.88;5028269;28;20049;-54
2023/04/05 04:28:26;;;;;;;10.25;6.28;;;;;;;-5.03;97.98;97635.78;5027984;28;20103;-57
2023/04/05 04:31:22;;;;;;;12.57;7.22;;;;;;;-4.96;97.58;97629.78;5020116;28;20096;-57
2023/04/05 04:33:54;;;;;;;9.63;5.90;;;;;;;-5.03;97.76;97622.56;5020436;28;20081;-58
2023/04/05 04:36:41;;;;;;;12.98;6.55;;;;;;;-5.15;98.29;97632.50;5030384;28;20030;-56
2023/04/05 04:39:43;;;;;;;15.55;6.68;;;;;;;-5.21;98.94;97628.63;5024912;28;20051;-56
2023/04/05 04:42:37;;;;;;;10.95;6.38;;;;;;;-5.10;98.87;97640.81;5021535;28;20056;-55
2023/04/05 04:45:16;;;;;;;11.15;6.20;;;;;;;-4.96;97.82;97637.72;5024342;28;20087;-54
2023/04/05 04:48:03;;;;;;;12.75;6.47;;;;;;;-4.86;97.61;97639.47;5024926;28;20049;-59
2023/04/05 04:51:01;;;;;;;10.50;5.82;;;;;;;-4.72;97.19;97643.44;5006301;28;20188;-56
2023/04/05 04:53:31;;;;;;;9.88;6.20;;;;;;;-4.65;97.46;97639.19;5023399;28;20046;-57
2023/04/05 04:55:58;;;;;;;8.85;6.07;;;;;;;-4.73;97.29;97639.09;5024965;28;20455;-55
2023/04/05 04:58:24;;;;;;;8.07;4.97;;;;;;;-4.58;96.95;97642.06;5024124;28;20152;-57
2023/04/05 05:01:00;;;;;;;10.60;5.72;;;;;;;-4.36;96.07;97646.13;5022682;28;20048;-58
2023/04/05 05:03:26;;;;;;;10.48;5.82;;;;;;;-4.31;95.30;97645.69;5023211;28;20049;-57
2023/04/05 05:05:53;;;;;;;13.15;6.43;;;;;;;-4.39;94.85;97653.53;5023211;28;20087;-59
2023/04/05 05:08:24;;;;;;;9.10;5.28;;;;;;;-4.43;95.08;97645.03;5021931;28;20049;-56
2023/04/05 05:10:53;;;;;;;14.23;6.07;;;;;;;-4.35;94.46;97645.13;5024142;28;20527;-57
2023/04/05 05:13:20;;;;;;;9.40;5.90;;;;;;;-4.38;94.27;97650.72;5022330;28;20046;-54
2023/04/05 05:15:47;;;;;;;13.52;6.13;;;;;;;-4.59;96.06;97649.19;5023535;28;20068;-55
2023/04/05 05:18:14;;;;;;;10.30;5.78;;;;;;;-4.62;96.13;97643.34;5025816;28;20050;-58
2023/04/05 05:20:41;;;;;;;14.68;7.05;;;;;;;-4.57;96.79;97644.56;5018044;28;20045;-57
2023/04/05 05:23:08;;;;;;;11.85;6.20;;;;;;;-4.34;96.63;97641.53;5028330;28;20049;-54
2023/04/05 05:25:35;;;;;;;15.40;6.93;;;;;;;-4.21;95.52;97640.28;5023531;28;20635;-56
2023/04/05 05:28:04;;;;;;;11.93;6.32;;;;;;;-4.21;94.84;97649.06;5023078;28;20041;-59
2023/04/05 05:30:32;;;;;;;12.00;6.35;;;;;;;-4.23;95.87;97647.56;5022963;28;20042;-56
2023/04/05 05:32:58;;;;;;;12.80;6.68;;;;;;;-4.02;95.12;97643.78;5022636;28;20041;-59
2023/04/05 05:35:26;;;;;;;10.70;6.90;;;;;;;-4.01;94.42;97645.44;5017991;28;20046;-57
2023/04/05 05:37:53;;;;;;;13.10;6.60;;;;;;;-4.01;95.08;97642.78;5023956;28;20045;-54
2023/04/05 05:40:19;;;;;;;11.88;7.45;;;;;;;-4.01;94.87;97637.50;5022879;28;20157;-56
2023/04/05 05:42:46;;;;;;;11.35;6.32;;;;;;;-3.84;94.09;97646.44;5022282;28;20037;-56
2023/04/05 05:45:12;;;;;;;14.07;7.35;;;;;;;-3.72;94.03;97644.34;5025658;28;20033;-55
2023/04/05 05:47:39;;;;;;;12.95;7.50;;;;;;;-3.68;93.79;97645.72;5024532;28;20041;-54
2023/04/05 05:50:06;;;;;;;13.18;7.07;;;;;;;-3.55;94.08;97637.34;5026444;28;20129;-57
2023/04/05 05:52:34;;;;;;;13.40;8.05;;;;;;;-3.53;93.27;97644.16;5021884;28;20045;-55
2023/04/05 05:55:01;;;;;;;11.90;7.35;;;;;;;-3.48;93.28;97642.84;5022779;28;20057;-55
2023/04/05 05:57:28;;;;;;;14.75;6.72;;;;;;;-3.42;93.54;97645.72;5022189;28;20115;-55
2023/04/05 05:59:54;;;;;;;12.63;6.57;;;;;;;-3.34;93.47;97642.31;5022629;28;20513;-57
2023/04/05 06:02:20;;;;;;;13.52;7.70;;;;;;;-3.29;94.71;97647.94;5021788;28;20069;-55
2023/04/05 06:04:48;;;;;;;13.88;8.00;;;;;;;-3.01;95.16;97647.78;5021409;28;20042;-55
2023/04/05 06:07:15;;;;;;;13.07;8.00;;;;;;;-3.04;92.87;97653.38;5018295;28;20046;-55
2023/04/05 06:09:41;;;;;;;10.35;7.07;;;;;;;-2.99;92.19;97652.91;5024941;28;20069;-54
2023/04/05 06:12:08;;;;;;;14.88;7.05;;;;;;;-2.85;91.78;97640.88;5023749;28;20069;-57
2023/04/05 06:14:34;;;;;;;16.90;7.93;;;;;;;-2.66;91.99;97654.88;5028052;28;20643;-57
2023/04/05 06:17:01;;;;;;;13.52;6.88;;;;;;;-2.57;90.36;97647.78;5029099;28;20048;-56
2023/04/05 06:19:27;;;;;;;11.98;7.60;;;;;;;-2.45;90.17;97651.78;5035306;28;20115;-56
2023/04/05 06:21:54;;;;;;;15.32;7.95;;;;;;;-2.32;88.92;97648.66;5023407;28;20136;-58
2023/04/05 06:24:20;;;;;;;12.02;7.72;;;;;;;-2.25;88.95;97649.66;5017782;28;20033;-57
2023/04/05 06:26:47;;;;;;;10.60;7.25;;;;;;;-2.09;88.31;97654.16;5033217;28;20639;-56
2023/04/05 06:29:13;;;;;;;10.30;6.65;;;;;;;-1.93;88.23;97654.34;5023332;28;20136;-57
2023/04/05 06:31:41;;;;;;;11.85;6.35;;;;;;;-1.80;88.61;97664.47;5030431;28;20048;-56
2023/04/05 06:34:08;;;;;;;11.68;7.22;;;;;;;-1.72;87.37;97656.53;5024959;28;20049;-57
2023/04/05 06:36:34;;;;;;;9.55;6.30;;;;;;;-1.60;87.23;97659.66;5033672;28;20385;-57
2023/04/05 06:39:01;;;;;;;12.05;6.55;;;;;;;-1.44;86.13;97650.84;5024161;28;20512;-56
2023/04/05 06:41:27;;;;;;;11.13;6.82;;;;;;;-1.24;83.05;97654.00;5035158;28;20165;-55
2023/04/05 06:43:55;;;;;;;12.68;7.22;;;;;;;-1.03;81.67;97657.09;5017388;28;20449;-54
2023/04/05 06:46:22;;;;;;;12.55;7.47;;;;;;;-0.86;80.08;97657.84;5031661;28;20120;-55
2023/04/05 06:48:49;;;;;;;13.85;7.18;;;;;;;-0.71;77.88;97663.28;5033498;28;20049;-57
2023/04/05 06:51:16;;;;;;;16.35;8.95;;;;;;;-0.53;78.01;97655.06;5033456;28;20141;-57
2023/04/05 06:53:43;;;;;;;11.00;6.55;;;;;;;-0.38;77.16;97657.00;5036784;28;20037;-55
2023/04/05 06:56:10;;;;;;;11.35;6.25;;;;;;;-0.33;75.92;97660.78;5033159;28;20041;-57
2023/04/05 06:58:37;;;;;;;11.20;6.40;;;;;;;-0.25;76.12;97654.59;5024904;28;20048;-55
2023/04/05 07:01:04;;;;;;;10.32;5.88;;;;;;;-0.15;76.08;97652.53;5024182;28;20581;-57
2023/04/05 07:03:31;;;;;;;13.38;6.35;;;;;;;-0.12;74.94;97653.19;5027839;28;20259;-58
2023/04/05 07:05:59;;;;;;;13.23;6.55;;;;;;;-0.05;75.12;97662.97;5025387;28;20041;-56
2023/04/05 07:08:31;;;;;;;12.80;6.75;;;;;;;0.04;74.21;97662.91;5021446;28;20584;-51
2023/04/05 07:10:58;;;;;;;13.23;5.75;;;;;;;0.05;75.42;97665.41;5026909;28;20801;-50
2023/04/05 07:13:25;;;;;;;16.70;6.40;;;;;;;0.25;71.02;97657.75;5023496;28;20148;-51
2023/04/05 07:15:58;;;;;;;9.68;4.88;;;;;;;0.44;70.05;97660.09;5034364;28;20080;-52
2023/04/05 07:18:25;;;;;;;9.55;5.55;;;;;;;0.63;68.90;97664.09;5019230;28;20071;-52
2023/04/05 07:20:55;;;;;;;8.75;5.53;;;;;;;0.89;68.91;97663.66;5026492;28;20076;-52
2023/04/05 07:23:21;;;;;;;11.10;5.95;;;;;;;0.98;69.38;97660.91;5030822;28;20048;-51
2023/04/05 07:25:48;;;;;;;11.23;6.80;;;;;;;1.09;69.42;97657.81;5026716;28;20048;-53
2023/04/05 07:28:15;;;;;;;7.93;5.38;;;;;;;0.98;67.83;97653.75;5031245;28;20106;-52
2023/04/05 07:30:41;;;;;;;9.60;6.03;;;;;;;0.98;68.60;97661.75;5037417;28;20069;-48
2023/04/05 07:33:08;;;;;;;9.80;5.60;;;;;;;1.04;68.99;97661.00;5030845;28;20056;-51
2023/04/05 07:35:35;;;;;;;10.40;5.57;;;;;;;1.09;67.86;97663.13;5033730;28;20049;-52
2023/04/05 07:38:02;;;;;;;10.95;5.50;;;;;;;1.34;66.26;97667.34;5023210;28;20049;-51
2023/04/05 07:40:28;;;;;;;7.18;4.43;;;;;;;1.49;67.69;97656.66;5022900;28;20136;-51
2023/04/05 07:42:55;;;;;;;8.13;5.60;;;;;;;1.47;66.96;97653.38;5019932;28;20099;-50
2023/04/05 07:45:21;;;;;;;8.63;5.50;;;;;;;1.53;67.04;97655.28;5032558;28;20094;-49
2023/04/05 07:47:48;;;;;;;8.48;5.40;;;;;;;1.55;67.54;97653.25;5026818;28;20053;-54
2023/04/05 07:50:15;;;;;;;10.90;6.00;;;;;;;1.58;67.53;97658.22;5032801;28;20048;-51
2023/04/05 07:52:41;;;;;;;8.95;5.88;;;;;;;1.61;66.70;97659.69;5040220;28;20068;-52
2023/04/05 07:55:08;;;;;;;10.38;5.13;;;;;;;1.80;65.91;97658.25;5034258;28;20079;-57
2023/04/05 07:57:36;;;;;;;11.77;6.13;;;;;;;1.89;64.43;97654.47;5030787;28;20057;-56
2023/04/05 08:00:09;;;;;;;11.05;5.82;;;;;;;2.05;63.22;97658.75;5027765;28;20053;-57
2023/04/05 08:02:38;;;;;;;10.13;5.28;;;;;;;2.10;62.94;97662.69;5029776;28;20053;-61
2023/04/05 08:05:05;;;;;;;11.98;5.50;;;;;;;1.99;63.07;97667.50;5000357;28;20056;-55
2023/04/05 08:07:32;;;;;;;9.32;5.32;;;;;;;1.95;62.79;97667.06;5028668;28;20048;-55
2023/04/05 08:09:59;;;;;;;9.85;5.38;;;;;;;1.97;60.57;97668.69;5034344;28;20111;-58
2023/04/05 08:12:26;;;;;;;11.45;5.57;;;;;;;2.12;59.98;97672.16;5030285;28;20555;-56
2023/04/05 08:14:52;;;;;;;8.02;4.93;;;;;;;2.21;60.71;97663.00;5035461;28;20053;-55
2023/04/05 08:17:19;;;;;;;8.93;5.00;;;;;;;2.28;60.25;97670.28;5036426;28;20095;-58
2023/04/05 08:19:45;;;;;;;11.23;5.10;;;;;;;2.30;59.92;97666.38;5030361;28;20033;-59
2023/04/05 08:22:12;;;;;;;10.68;5.60;;;;;;;2.43;59.18;97667.53;5029835;28;20049;-57
2023/04/05 08:24:38;;;;;;;10.68;6.07;;;;;;;2.46;59.26;97670.63;5044059;28;20049;-58
2023/04/05 08:27:05;;;;;;;11.10;5.75;;;;;;;2.60;59.02;97668.91;5027143;28;20049;-57
2023/04/05 08:29:31;;;;;;;13.48;6.00;;;;;;;2.68;59.28;97675.94;5031191;28;20047;-58
2023/04/05 08:31:58;;;;;;;10.18;5.72;;;;;;;2.76;59.54;97666.16;5031408;28;20115;-59
2023/04/05 08:34:24;;;;;;;9.40;5.32;;;;;;;2.70;58.70;97663.19;5032371;28;20469;-59
2023/04/05 08:36:51;;;;;;;11.70;5.18;;;;;;;2.91;58.77;97668.72;5040544;28;20041;-58
2023/04/05 08:39:17;;;;;;;8.93;5.53;;;;;;;2.93;57.40;97669.34;5029778;28;20041;-57
2023/04/05 08:41:59;;;;;;;8.38;5.10;;;;;;;3.04;58.34;97663.44;5025282;28;20065;-57
2023/04/05 08:44:29;;;;;;;10.73;5.70;;;;;;;3.14;56.63;97671.13;5034930;28;20049;-58
2023/04/05 08:46:57;;;;;;;11.60;5.40;;;;;;;3.11;56.14;97668.84;5041179;28;20037;-56
2023/04/05 08:49:24;;;;;;;9.25;4.72;;;;;;;3.19;55.03;97670.53;5037595;28;20124;-57
2023/04/05 08:51:51;;;;;;;10.30;4.95;;;;;;;3.32;54.78;97675.16;5034915;28;20102;-58
2023/04/05 08:54:18;;;;;;;11.25;5.00;;;;;;;3.35;53.51;97669.38;5026922;28;20084;-59
2023/04/05 08:56:47;;;;;;;10.98;4.88;;;;;;;3.53;53.54;97673.41;5025665;28;20116;-58
2023/04/05 08:59:15;;;;;;;9.02;4.57;;;;;;;3.54;52.62;97667.81;5019178;28;20118;-57
2023/04/05 09:01:43;;;;;;;13.23;5.32;;;;;;;3.50;52.44;97666.56;5010633;28;20041;-56
2023/04/05 09:04:23;;;;;;;7.00;4.55;;;;;;;3.45;50.65;97663.66;5021270;28;20087;-57
2023/04/05 09:06:51;;;;;;;8.02;4.30;;;;;;;3.41;49.80;97657.06;5023341;28;20048;-55
2023/04/05 09:09:19;;;;;;;10.30;4.38;;;;;;;3.58;50.19;97655.69;5031980;28;20049;-54
2023/04/05 09:11:47;;;;;;;11.98;4.68;;;;;;;3.71;49.10;97657.59;5027929;28;20040;-53
2023/04/05 09:14:14;;;;;;;8.32;4.10;;;;;;;3.65;47.77;97658.41;5034489;28;20055;-56
2023/04/05 09:16:41;;;;;;;7.38;4.55;;;;;;;3.72;47.03;97656.56;5026283;28;20036;-55
2023/04/05 09:19:09;;;;;;;12.75;4.72;;;;;;;3.85;48.57;97660.31;5032784;28;20053;-56
2023/04/05 09:22:05;;;;;;;9.98;4.57;;;;;;;3.89;47.13;97654.38;5023424;28;20137;-56
2023/04/05 09:24:42;;;;;;;6.53;4.05;;;;;;;3.98;45.91;97664.91;5039201;28;20124;-57
2023/04/05 09:27:10;;;;;;;7.55;4.28;;;;;;;4.06;47.35;97669.25;5025945;28;20104;-58
2023/04/05 09:29:39;;;;;;;7.97;4.28;;;;;;;4.01;45.60;97665.31;5024842;28;20120;-59
2023/04/05 09:32:09;;;;;;;6.60;3.88;;;;;;;3.86;46.33;97661.97;5025502;28;20525;-56
2023/04/05 09:34:37;;;;;;;11.20;5.88;;;;;;;3.86;46.95;97661.97;5026629;28;20120;-59
2023/04/05 09:37:13;;;;;;;7.80;4.73;;;;;;;3.95;46.58;97651.91;5028363;28;20040;-58
2023/04/05 09:39:41;;;;;;;8.02;4.32;;;;;;;3.96;46.40;97657.06;5019383;28;20453;-56
2023/04/05 09:42:08;;;;;;;6.40;4.30;;;;;;;3.96;45.34;97658.91;5021664;28;20049;-56
2023/04/05 09:45:00;;;;;;;7.00;4.13;;;;;;;4.09;44.77;97652.75;5020948;28;20096;-57
2023/04/05 09:47:33;;;;;;;7.53;5.15;;;;;;;4.12;46.70;97658.53;5028587;28;20136;-56
2023/04/05 09:50:23;;;;;;;7.63;4.55;;;;;;;4.25;45.04;97655.06;5025805;28;20048;-58
2023/04/05 09:53:05;;;;;;;8.60;4.65;;;;;;;4.09;45.67;97660.81;5024022;28;20045;-56
2023/04/05 09:55:32;;;;;;;10.02;5.18;;;;;;;4.02;46.14;97658.91;5024526;28;20037;-55
2023/04/05 09:58:00;;;;;;;7.35;4.95;;;;;;;4.00;46.56;97649.44;5029033;28;20055;-57
2023/04/05 10:00:30;;;;;;;8.63;5.00;;;;;;;4.11;46.38;97648.00;5027966;28;20659;-57
2023/04/05 10:02:57;;;;;;;8.25;4.53;;;;;;;4.16;47.03;97649.06;5020530;28;20099;-56
2023/04/05 10:05:27;;;;;;;6.55;5.00;;;;;;;4.34;47.07;97644.13;5022956;28;20050;-58
2023/04/05 10:07:54;;;;;;;7.55;4.50;;;;;;;4.73;47.06;97639.81;5024032;28;20456;-57
2023/04/05 10:10:22;;;;;;;7.50;4.53;;;;;;;4.80;46.17;97637.13;5020791;28;20444;-57
2023/04/05 10:12:50;;;;;;;8.13;4.85;;;;;;;4.92;45.57;97640.81;5022367;28;20528;-58
2023/04/05 10:15:17;;;;;;;8.60;5.03;;;;;;;4.82;45.00;97633.19;5021831;28;20049;-56
2023/04/05 10:18:09;;;;;;;7.18;4.47;;;;;;;4.52;44.44;97630.94;5022590;28;20038;-56
2023/04/05 10:20:42;;;;;;;7.30;4.57;;;;;;;4.63;45.02;97628.66;5012379;28;20053;-55
2023/04/05 10:23:16;;;;;;;6.90;4.68;;;;;;;4.61;45.17;97628.88;5026191;28;20049;-57
2023/04/05 10:25:52;;;;;;;7.25;4.50;;;;;;;4.89;44.92;97629.66;5014229;28;20055;-54
2023/04/05 10:28:34;;;;;;;7.93;4.85;;;;;;;4.93;43.32;97630.91;5013712;28;20060;-60
2023/04/05 10:31:12;;;;;;;;;;;;;;;4.99;42.95;97622.03;5014299;28;20064;-57
2023/04/05 10:34:05;;;;;;;8.03;4.60;;;;;;;4.93;44.24;97626.38;5016975;28;19975;-59
2023/04/05 10:36:44;;;;;;;8.07;4.30;;;;;;;4.99;43.77;97624.72;5015165;28;20041;-58
2023/04/05 10:39:40;;;;;;;7.20;4.32;;;;;;;5.10;43.12;97628.63;5014206;28;20049;-59
2023/04/05 10:42:17;;;;;;;7.72;4.32;;;;;;;5.14;42.81;97623.63;5018389;28;20504;-58
2023/04/05 10:44:49;;;;;;;9.25;5.00;;;;;;;5.23;41.85;97627.72;5017628;28;20044;-59
2023/04/05 10:47:18;;;;;;;9.32;5.00;;;;;;;5.30;43.44;97625.03;5019787;28;20116;-59
2023/04/05 10:49:47;;;;;;;9.68;4.60;;;;;;;5.20;42.73;97625.50;5020398;28;20070;-58
2023/04/05 10:52:16;;;;;;;7.97;5.00;;;;;;;5.18;42.11;97627.56;5024319;28;20094;-57
2023/04/05 10:54:43;;;;;;;7.75;4.55;;;;;;;4.85;42.27;97618.53;5021355;28;20052;-60
2023/04/05 10:57:10;;;;;;;8.73;4.38;;;;;;;4.98;43.03;97617.69;5017279;28;20038;-59
2023/04/05 10:59:43;;;;;;;7.78;4.70;;;;;;;5.27;43.84;97609.38;5015213;28;20053;-57
2023/04/05 11:02:10;;;;;;;8.38;5.15;;;;;;;5.49;43.06;97609.88;5018253;28;20123;-57
2023/04/05 11:04:38;;;;;;;9.82;4.90;;;;;;;5.59;42.47;97607.59;5017042;28;20466;-58
2023/04/05 11:07:12;;;;;;;9.02;4.60;;;;;;;5.59;41.74;97602.22;5023049;28;20040;-58
2023/04/05 11:09:51;;;;;;;7.68;5.15;;;;;;;5.50;41.34;97608.88;5016618;28;20456;-58
2023/04/05 11:12:18;;;;;;;11.05;5.38;;;;;;;5.57;41.39;97596.22;5018352;28;20226;-59
2023/04/05 11:14:44;;;;;;;10.00;5.28;;;;;;;5.52;41.31;97593.34;5019700;28;20054;-57
2023/04/05 11:17:27;;;;;;;6.93;4.88;;;;;;;5.59;42.20;97590.63;5019041;28;20041;-58
2023/04/05 11:20:11;;;;;;;8.05;5.00;;;;;;;5.84;45.66;97588.03;5017151;28;20061;-60
2023/04/05 11:22:38;;;;;;;7.85;5.32;;;;;;;5.85;42.64;97588.84;5019406;28;20072;-58
2023/04/05 11:25:05;;;;;;;9.48;5.32;;;;;;;5.95;42.26;97585.69;5021271;28;20627;-59
2023/04/05 11:27:33;;;;;;;7.50;4.47;;;;;;;5.82;42.36;97589.28;5020844;28;20041;-54
2023/04/05 11:30:01;;;;;;;8.82;5.32;;;;;;;5.94;41.93;97584.03;5023519;28;20586;-58
2023/04/05 11:32:46;;;;;;;6.72;4.82;;;;;;;6.10;41.65;97593.47;5020108;28;20412;-56
2023/04/05 11:35:14;;;;;;;8.18;4.75;;;;;;;6.47;41.90;97585.53;4998613;28;20517;-58
2023/04/05 11:37:59;;;;;;;7.55;4.90;;;;;;;6.50;40.97;97582.38;5005413;28;20390;-58
2023/04/05 11:40:36;;;;;;;8.45;4.70;;;;;;;6.45;40.46;97581.41;5021016;28;20041;-58
2023/04/05 11:43:07;;;;;;;8.25;5.05;;;;;;;6.27;40.98;97580.31;5021970;28;20045;-58
2023/04/05 11:45:36;;;;;;;8.90;5.10;;;;;;;6.30;41.65;97573.69;5021972;28;20049;-58
2023/04/05 11:48:11;;;;;;;9.57;5.07;;;;;;;6.33;40.31;97578.59;5024973;28;20041;-59